sensor_id;sensor_type;location;lat;lon;timestamp;noise_LAeq;noise_LA_min;noise_LA_max;noise_LA01;noise_LA95
67900;Laerm;54700;51.796;10.956;2023-04-28T00:02:21;29.71;27.47;40.00;;
67900;Laerm;54700;51.796;10.956;2023-04-28T00:04:53;48.47;27.51;64.92;;
67900;Laerm;54700;51.796;10.956;2023-04-28T00:07:22;31.96;27.81;47.75;;
67900;Laerm;54700;51.796;10.956;2023-04-28T00:09:52;31.20;27.89;40.24;;
67900;Laerm;54700;51.796;10.956;2023-04-28T00:12:19;30.13;27.58;42.16;;
67900;Laerm;54700;51.796;10.956;2023-04-28T00:14:46;42.19;27.69;63.28;;
67900;Laerm;54700;51.796;10.956;2023-04-28T00:17:17;50.16;27.41;67.13;;
67900;Laerm;54700;51.796;10.956;2023-04-28T00:19:45;29.39;27.27;40.01;;
67900;Laerm;54700;51.796;10.956;2023-04-28T00:22:15;50.06;27.81;67.85;;
67900;Laerm;54700;51.796;10.956;2023-04-28T00:24:42;46.19;27.26;62.14;;
67900;Laerm;54700;51.796;10.956;2023-04-28T00:27:09;48.92;27.46;64.28;;
67900;Laerm;54700;51.796;10.956;2023-04-28T00:29:36;29.50;27.52;38.71;;
67900;Laerm;54700;51.796;10.956;2023-04-28T00:32:11;29.55;27.31;40.37;;
67900;Laerm;54700;51.796;10.956;2023-04-28T00:34:40;49.31;27.39;64.90;;
67900;Laerm;54700;51.796;10.956;2023-04-28T00:37:08;29.86;27.05;40.22;;
67900;Laerm;54700;51.796;10.956;2023-04-28T00:39:37;58.86;27.35;76.05;;
67900;Laerm;54700;51.796;10.956;2023-04-28T00:42:06;29.32;27.31;42.72;;
67900;Laerm;54700;51.796;10.956;2023-04-28T00:44:35;29.64;27.24;40.34;;
67900;Laerm;54700;51.796;10.956;2023-04-28T00:47:07;30.44;27.50;40.19;;
67900;Laerm;54700;51.796;10.956;2023-04-28T00:49:36;50.38;27.58;67.51;;
67900;Laerm;54700;51.796;10.956;2023-04-28T00:52:08;29.67;27.39;40.49;;
67900;Laerm;54700;51.796;10.956;2023-04-28T00:54:36;29.22;27.07;39.97;;
67900;Laerm;54700;51.796;10.956;2023-04-28T00:57:12;29.51;27.47;39.69;;
67900;Laerm;54700;51.796;10.956;2023-04-28T00:59:43;29.28;27.11;39.85;;
67900;Laerm;54700;51.796;10.956;2023-04-28T01:02:13;29.99;26.94;44.83;;
67900;Laerm;54700;51.796;10.956;2023-04-28T01:04:49;29.39;27.16;40.23;;
67900;Laerm;54700;51.796;10.956;2023-04-28T01:07:22;29.27;27.17;38.89;;
67900;Laerm;54700;51.796;10.956;2023-04-28T01:09:54;29.21;27.16;40.05;;
67900;Laerm;54700;51.796;10.956;2023-04-28T01:12:30;29.35;27.07;39.43;;
67900;Laerm;54700;51.796;10.956;2023-04-28T01:14:59;29.20;27.21;40.60;;
67900;Laerm;54700;51.796;10.956;2023-04-28T01:17:26;49.51;27.51;65.21;;
67900;Laerm;54700;51.796;10.956;2023-04-28T01:19:53;29.82;27.78;39.09;;
67900;Laerm;54700;51.796;10.956;2023-04-28T01:22:22;29.45;27.43;40.05;;
67900;Laerm;54700;51.796;10.956;2023-04-28T01:24:50;54.16;27.41;70.22;;
67900;Laerm;54700;51.796;10.956;2023-04-28T01:27:17;29.35;27.54;39.35;;
67900;Laerm;54700;51.796;10.956;2023-04-28T01:29:44;29.65;27.45;40.67;;
67900;Laerm;54700;51.796;10.956;2023-04-28T01:32:12;29.97;27.27;39.18;;
67900;Laerm;54700;51.796;10.956;2023-04-28T01:34:39;29.09;27.19;41.19;;
67900;Laerm;54700;51.796;10.956;2023-04-28T01:37:06;29.11;27.02;40.79;;
67900;Laerm;54700;51.796;10.956;2023-04-28T01:39:33;29.36;27.29;41.13;;
67900;Laerm;54700;51.796;10.956;2023-04-28T01:42:09;51.73;27.28;67.33;;
67900;Laerm;54700;51.796;10.956;2023-04-28T01:44:40;29.67;27.42;39.82;;
67900;Laerm;54700;51.796;10.956;2023-04-28T01:47:08;29.77;27.30;39.93;;
67900;Laerm;54700;51.796;10.956;2023-04-28T01:49:38;31.43;27.67;46.37;;
67900;Laerm;54700;51.796;10.956;2023-04-28T01:52:07;46.87;29.54;62.65;;
67900;Laerm;54700;51.796;10.956;2023-04-28T01:54:39;31.25;27.55;39.75;;
67900;Laerm;54700;51.796;10.956;2023-04-28T01:57:15;30.54;27.55;41.25;;
67900;Laerm;54700;51.796;10.956;2023-04-28T01:59:45;30.86;27.42;40.54;;
67900;Laerm;54700;51.796;10.956;2023-04-28T02:02:16;50.75;27.68;66.98;;
67900;Laerm;54700;51.796;10.956;2023-04-28T02:04:43;35.83;27.48;49.19;;
67900;Laerm;54700;51.796;10.956;2023-04-28T02:07:18;50.75;29.06;66.24;;
67900;Laerm;54700;51.796;10.956;2023-04-28T02:10:10;33.60;27.96;49.60;;
67900;Laerm;54700;51.796;10.956;2023-04-28T02:12:50;32.49;27.72;50.98;;
67900;Laerm;54700;51.796;10.956;2023-04-28T02:15:31;48.94;28.25;65.30;;
67900;Laerm;54700;51.796;10.956;2023-04-28T02:18:00;53.15;28.06;67.88;;
67900;Laerm;54700;51.796;10.956;2023-04-28T02:20:30;52.31;28.90;67.47;;
67900;Laerm;54700;51.796;10.956;2023-04-28T02:23:08;50.07;28.05;64.52;;
67900;Laerm;54700;51.796;10.956;2023-04-28T02:25:37;49.40;28.05;66.51;;
67900;Laerm;54700;51.796;10.956;2023-04-28T02:28:09;53.89;28.10;69.63;;
67900;Laerm;54700;51.796;10.956;2023-04-28T02:30:42;54.33;28.43;71.49;;
67900;Laerm;54700;51.796;10.956;2023-04-28T02:33:12;47.43;28.64;67.50;;
67900;Laerm;54700;51.796;10.956;2023-04-28T02:35:41;57.19;29.53;70.14;;
67900;Laerm;54700;51.796;10.956;2023-04-28T02:38:09;57.20;29.03;69.59;;
67900;Laerm;54700;51.796;10.956;2023-04-28T02:40:39;58.49;29.98;73.28;;
67900;Laerm;54700;51.796;10.956;2023-04-28T02:43:07;55.01;28.98;68.27;;
67900;Laerm;54700;51.796;10.956;2023-04-28T02:45:34;32.89;29.51;43.26;;
67900;Laerm;54700;51.796;10.956;2023-04-28T02:48:02;56.58;29.04;71.91;;
67900;Laerm;54700;51.796;10.956;2023-04-28T02:50:29;55.77;28.69;69.94;;
67900;Laerm;54700;51.796;10.956;2023-04-28T02:52:56;50.61;28.45;66.50;;
67900;Laerm;54700;51.796;10.956;2023-04-28T02:55:30;53.70;28.94;73.35;;
67900;Laerm;54700;51.796;10.956;2023-04-28T02:58:00;50.56;28.62;69.15;;
67900;Laerm;54700;51.796;10.956;2023-04-28T03:00:29;53.45;30.32;69.50;;
67900;Laerm;54700;51.796;10.956;2023-04-28T03:02:56;55.65;32.15;67.85;;
67900;Laerm;54700;51.796;10.956;2023-04-28T03:05:23;50.33;31.09;65.78;;
67900;Laerm;54700;51.796;10.956;2023-04-28T03:07:57;45.72;31.56;61.51;;
67900;Laerm;54700;51.796;10.956;2023-04-28T03:10:25;51.08;31.32;66.27;;
67900;Laerm;54700;51.796;10.956;2023-04-28T03:12:52;49.50;32.24;61.45;;
67900;Laerm;54700;51.796;10.956;2023-04-28T03:15:21;55.91;35.22;70.59;;
67900;Laerm;54700;51.796;10.956;2023-04-28T03:17:53;57.89;34.60;72.15;;
67900;Laerm;54700;51.796;10.956;2023-04-28T03:20:20;57.06;33.31;72.37;;
67900;Laerm;54700;51.796;10.956;2023-04-28T03:22:46;58.41;32.93;68.94;;
67900;Laerm;54700;51.796;10.956;2023-04-28T03:25:14;55.03;34.23;68.45;;
67900;Laerm;54700;51.796;10.956;2023-04-28T03:27:42;57.71;32.27;69.89;;
67900;Laerm;54700;51.796;10.956;2023-04-28T03:30:12;54.98;34.01;69.57;;
67900;Laerm;54700;51.796;10.956;2023-04-28T03:32:42;60.79;34.71;72.27;;
67900;Laerm;54700;51.796;10.956;2023-04-28T03:35:11;57.83;34.20;69.98;;
67900;Laerm;54700;51.796;10.956;2023-04-28T03:37:40;59.00;34.99;74.21;;
67900;Laerm;54700;51.796;10.956;2023-04-28T03:40:08;57.52;34.40;69.65;;
67900;Laerm;54700;51.796;10.956;2023-04-28T03:42:35;57.88;34.52;71.80;;
67900;Laerm;54700;51.796;10.956;2023-04-28T03:45:05;58.68;34.54;70.07;;
67900;Laerm;54700;51.796;10.956;2023-04-28T03:47:33;54.85;32.19;69.40;;
67900;Laerm;54700;51.796;10.956;2023-04-28T03:50:02;60.95;36.61;70.84;;
67900;Laerm;54700;51.796;10.956;2023-04-28T03:52:31;58.89;34.90;71.69;;
67900;Laerm;54700;51.796;10.956;2023-04-28T03:55:00;60.02;35.53;72.54;;
67900;Laerm;54700;51.796;10.956;2023-04-28T03:57:41;59.92;35.06;75.08;;
67900;Laerm;54700;51.796;10.956;2023-04-28T04:00:13;58.05;33.59;69.87;;
67900;Laerm;54700;51.796;10.956;2023-04-28T04:02:43;61.63;34.11;72.43;;
67900;Laerm;54700;51.796;10.956;2023-04-28T04:05:10;60.54;35.16;71.52;;
67900;Laerm;54700;51.796;10.956;2023-04-28T04:07:39;60.56;33.91;71.53;;
67900;Laerm;54700;51.796;10.956;2023-04-28T04:10:08;59.17;33.27;72.63;;
67900;Laerm;54700;51.796;10.956;2023-04-28T04:12:38;57.19;35.06;70.97;;
67900;Laerm;54700;51.796;10.956;2023-04-28T04:15:06;61.73;35.72;75.66;;
67900;Laerm;54700;51.796;10.956;2023-04-28T04:17:33;59.66;34.64;71.77;;
67900;Laerm;54700;51.796;10.956;2023-04-28T04:20:00;62.78;35.26;71.58;;
67900;Laerm;54700;51.796;10.956;2023-04-28T04:22:32;60.95;33.54;72.02;;
67900;Laerm;54700;51.796;10.956;2023-04-28T04:25:00;60.11;33.54;73.05;;
67900;Laerm;54700;51.796;10.956;2023-04-28T04:27:28;61.18;39.22;74.72;;
67900;Laerm;54700;51.796;10.956;2023-04-28T04:29:55;63.45;38.65;75.12;;
67900;Laerm;54700;51.796;10.956;2023-04-28T04:32:22;58.90;33.78;68.88;;
67900;Laerm;54700;51.796;10.956;2023-04-28T04:34:49;61.60;37.45;73.79;;
67900;Laerm;54700;51.796;10.956;2023-04-28T04:37:16;61.81;39.83;72.51;;
67900;Laerm;54700;51.796;10.956;2023-04-28T04:39:45;60.84;37.32;76.61;;
67900;Laerm;54700;51.796;10.956;2023-04-28T04:42:13;63.31;41.46;74.27;;
67900;Laerm;54700;51.796;10.956;2023-04-28T04:44:40;62.05;41.08;70.68;;
67900;Laerm;54700;51.796;10.956;2023-04-28T04:47:12;63.34;42.06;75.07;;
67900;Laerm;54700;51.796;10.956;2023-04-28T04:50:03;63.01;41.72;76.91;;
67900;Laerm;54700;51.796;10.956;2023-04-28T04:52:51;63.97;40.95;75.81;;
67900;Laerm;54700;51.796;10.956;2023-04-28T04:55:44;63.39;44.87;71.39;;
67900;Laerm;54700;51.796;10.956;2023-04-28T04:58:26;64.97;40.67;81.29;;
67900;Laerm;54700;51.796;10.956;2023-04-28T05:01:26;63.40;38.36;76.57;;
67900;Laerm;54700;51.796;10.956;2023-04-28T05:04:22;62.87;38.46;75.63;;
67900;Laerm;54700;51.796;10.956;2023-04-28T05:06:59;63.83;47.99;75.74;;
67900;Laerm;54700;51.796;10.956;2023-04-28T05:09:53;64.64;44.46;76.03;;
67900;Laerm;54700;51.796;10.956;2023-04-28T05:45:21;64.21;40.94;79.22;;
67900;Laerm;54700;51.796;10.956;2023-04-28T05:47:57;64.73;49.73;75.97;;
67900;Laerm;54700;51.796;10.956;2023-04-28T05:50:24;64.98;41.44;72.97;;
67900;Laerm;54700;51.796;10.956;2023-04-28T05:53:01;62.72;45.11;74.12;;
67900;Laerm;54700;51.796;10.956;2023-04-28T05:55:32;63.11;42.60;74.06;;
67900;Laerm;54700;51.796;10.956;2023-04-28T05:58:05;63.92;43.17;71.72;;
67900;Laerm;54700;51.796;10.956;2023-04-28T06:00:37;62.72;43.44;73.37;;
67900;Laerm;54700;51.796;10.956;2023-04-28T06:03:06;62.21;36.00;72.38;;
67900;Laerm;54700;51.796;10.956;2023-04-28T06:05:37;62.29;38.22;72.86;;
67900;Laerm;54700;51.796;10.956;2023-04-28T06:08:11;65.81;49.65;80.74;;
67900;Laerm;54700;51.796;10.956;2023-04-28T06:10:52;64.08;36.17;74.74;;
67900;Laerm;54700;51.796;10.956;2023-04-28T06:13:19;62.82;40.29;81.92;;
67900;Laerm;54700;51.796;10.956;2023-04-28T06:16:03;61.86;38.14;77.07;;
67900;Laerm;54700;51.796;10.956;2023-04-28T06:18:31;64.51;42.19;75.49;;
67900;Laerm;54700;51.796;10.956;2023-04-28T06:21:01;62.88;41.14;77.13;;
67900;Laerm;54700;51.796;10.956;2023-04-28T06:23:29;64.40;41.67;75.03;;
67900;Laerm;54700;51.796;10.956;2023-04-28T06:25:56;61.25;34.96;72.83;;
67900;Laerm;54700;51.796;10.956;2023-04-28T06:28:25;66.49;43.68;81.32;;
67900;Laerm;54700;51.796;10.956;2023-04-28T06:30:52;61.50;36.41;70.67;;
67900;Laerm;54700;51.796;10.956;2023-04-28T06:33:21;63.98;39.61;81.82;;
67900;Laerm;54700;51.796;10.956;2023-04-28T06:36:11;62.59;39.61;70.70;;
67900;Laerm;54700;51.796;10.956;2023-04-28T06:39:02;61.72;39.22;77.51;;
67900;Laerm;54700;51.796;10.956;2023-04-28T06:41:33;62.24;40.25;74.65;;
67900;Laerm;54700;51.796;10.956;2023-04-28T06:44:25;63.83;35.58;76.02;;
67900;Laerm;54700;51.796;10.956;2023-04-28T06:46:53;65.00;43.19;83.02;;
67900;Laerm;54700;51.796;10.956;2023-04-28T06:49:47;61.96;38.89;73.33;;
67900;Laerm;54700;51.796;10.956;2023-04-28T06:52:24;63.03;37.20;73.50;;
67900;Laerm;54700;51.796;10.956;2023-04-28T06:54:56;61.96;52.23;68.76;;
67900;Laerm;54700;51.796;10.956;2023-04-28T06:57:25;63.94;56.11;75.06;;
67900;Laerm;54700;51.796;10.956;2023-04-28T07:00:03;64.76;56.64;74.91;;
67900;Laerm;54700;51.796;10.956;2023-04-28T07:02:31;64.32;56.67;73.76;;
67900;Laerm;54700;51.796;10.956;2023-04-28T07:05:03;64.43;43.36;74.65;;
67900;Laerm;54700;51.796;10.956;2023-04-28T07:07:31;62.54;37.08;73.56;;
67900;Laerm;54700;51.796;10.956;2023-04-28T07:09:58;64.10;34.10;71.73;;
67900;Laerm;54700;51.796;10.956;2023-04-28T07:12:28;64.68;40.66;77.14;;
67900;Laerm;54700;51.796;10.956;2023-04-28T07:15:03;62.23;37.88;71.79;;
67900;Laerm;54700;51.796;10.956;2023-04-28T07:17:38;64.38;40.92;76.96;;
67900;Laerm;54700;51.796;10.956;2023-04-28T07:20:14;64.81;37.87;73.89;;
67900;Laerm;54700;51.796;10.956;2023-04-28T07:23:00;64.06;45.93;74.09;;
67900;Laerm;54700;51.796;10.956;2023-04-28T07:25:42;63.13;41.70;77.03;;
67900;Laerm;54700;51.796;10.956;2023-04-28T07:28:10;62.66;38.44;75.92;;
67900;Laerm;54700;51.796;10.956;2023-04-28T07:30:39;63.72;39.54;70.22;;
67900;Laerm;54700;51.796;10.956;2023-04-28T07:36:41;65.09;44.11;75.89;;
67900;Laerm;54700;51.796;10.956;2023-04-28T07:39:22;64.41;35.68;74.16;;
67900;Laerm;54700;51.796;10.956;2023-04-28T07:42:10;63.63;41.20;74.88;;
67900;Laerm;54700;51.796;10.956;2023-04-28T07:44:38;63.86;44.15;71.73;;
67900;Laerm;54700;51.796;10.956;2023-04-28T07:47:22;61.66;43.09;69.71;;
67900;Laerm;54700;51.796;10.956;2023-04-28T07:50:15;61.08;40.12;70.71;;
67900;Laerm;54700;51.796;10.956;2023-04-28T07:53:20;62.73;41.64;71.32;;
67900;Laerm;54700;51.796;10.956;2023-04-28T07:56:40;62.06;43.38;70.30;;
67900;Laerm;54700;51.796;10.956;2023-04-28T07:59:35;64.55;40.20;76.47;;
67900;Laerm;54700;51.796;10.956;2023-04-28T08:02:31;64.59;46.66;76.05;;
67900;Laerm;54700;51.796;10.956;2023-04-28T08:13:34;63.47;41.18;78.60;;
67900;Laerm;54700;51.796;10.956;2023-04-28T08:14:42;63.70;42.09;75.87;;
67900;Laerm;54700;51.796;10.956;2023-04-28T08:17:36;63.20;42.55;70.56;;
67900;Laerm;54700;51.796;10.956;2023-04-28T08:20:13;63.12;44.96;70.70;;
67900;Laerm;54700;51.796;10.956;2023-04-28T08:22:57;63.27;41.53;71.48;;
67900;Laerm;54700;51.796;10.956;2023-04-28T08:25:38;63.93;44.33;72.71;;
67900;Laerm;54700;51.796;10.956;2023-04-28T08:28:08;62.93;44.73;74.98;;
67900;Laerm;54700;51.796;10.956;2023-04-28T08:30:52;63.80;41.49;81.05;;
67900;Laerm;54700;51.796;10.956;2023-04-28T08:33:28;64.24;47.61;72.95;;
67900;Laerm;54700;51.796;10.956;2023-04-28T08:35:56;63.42;38.71;74.81;;
67900;Laerm;54700;51.796;10.956;2023-04-28T08:38:24;62.95;38.98;70.66;;
67900;Laerm;54700;51.796;10.956;2023-04-28T08:41:07;62.36;37.66;72.00;;
67900;Laerm;54700;51.796;10.956;2023-04-28T08:43:50;63.00;39.08;73.66;;
67900;Laerm;54700;51.796;10.956;2023-04-28T08:46:35;62.53;39.46;72.83;;
67900;Laerm;54700;51.796;10.956;2023-04-28T08:52:47;66.60;43.66;82.56;;
67900;Laerm;54700;51.796;10.956;2023-04-28T08:55:48;63.14;48.34;72.78;;
67900;Laerm;54700;51.796;10.956;2023-04-28T09:03:22;64.93;48.55;72.10;;
67900;Laerm;54700;51.796;10.956;2023-04-28T09:08:34;64.31;44.22;75.46;;
67900;Laerm;54700;51.796;10.956;2023-04-28T09:11:51;64.56;44.66;77.52;;
67900;Laerm;54700;51.796;10.956;2023-04-28T09:14:43;65.18;42.56;77.69;;
67900;Laerm;54700;51.796;10.956;2023-04-28T09:17:24;62.30;41.11;69.55;;
67900;Laerm;54700;51.796;10.956;2023-04-28T09:19:57;64.16;36.74;74.01;;
67900;Laerm;54700;51.796;10.956;2023-04-28T09:22:27;65.00;42.14;76.21;;
67900;Laerm;54700;51.796;10.956;2023-04-28T09:25:24;63.70;44.85;73.08;;
67900;Laerm;54700;51.796;10.956;2023-04-28T09:28:26;64.16;44.25;72.34;;
67900;Laerm;54700;51.796;10.956;2023-04-28T09:31:40;65.67;39.26;84.05;;
67900;Laerm;54700;51.796;10.956;2023-04-28T09:34:24;65.40;40.62;75.02;;
67900;Laerm;54700;51.796;10.956;2023-04-28T09:37:30;62.46;37.08;76.54;;
67900;Laerm;54700;51.796;10.956;2023-04-28T09:40:33;63.63;41.65;71.96;;
67900;Laerm;54700;51.796;10.956;2023-04-28T09:43:48;73.31;39.54;94.58;;
67900;Laerm;54700;51.796;10.956;2023-04-28T09:46:34;63.04;46.36;70.34;;
67900;Laerm;54700;51.796;10.956;2023-04-28T09:49:03;62.70;43.40;72.11;;
67900;Laerm;54700;51.796;10.956;2023-04-28T09:51:41;64.63;51.77;72.81;;
67900;Laerm;54700;51.796;10.956;2023-04-28T09:54:17;63.30;42.46;73.42;;
67900;Laerm;54700;51.796;10.956;2023-04-28T09:57:04;63.72;41.13;74.52;;
67900;Laerm;54700;51.796;10.956;2023-04-28T09:59:41;62.37;42.20;70.86;;
67900;Laerm;54700;51.796;10.956;2023-04-28T10:02:15;64.91;49.32;72.65;;
67900;Laerm;54700;51.796;10.956;2023-04-28T10:04:51;63.83;47.25;76.28;;
67900;Laerm;54700;51.796;10.956;2023-04-28T10:07:21;65.72;55.35;76.26;;
67900;Laerm;54700;51.796;10.956;2023-04-28T10:10:18;63.98;39.54;80.67;;
67900;Laerm;54700;51.796;10.956;2023-04-28T10:13:45;63.22;42.88;70.69;;
67900;Laerm;54700;51.796;10.956;2023-04-28T10:16:05;64.40;42.15;74.27;;
67900;Laerm;54700;51.796;10.956;2023-04-28T10:18:36;62.48;35.36;71.43;;
67900;Laerm;54700;51.796;10.956;2023-04-28T10:21:11;62.49;41.85;71.06;;
67900;Laerm;54700;51.796;10.956;2023-04-28T10:24:08;62.81;41.69;72.67;;
67900;Laerm;54700;51.796;10.956;2023-04-28T10:27:12;63.41;43.25;73.95;;
67900;Laerm;54700;51.796;10.956;2023-04-28T10:30:12;64.70;45.71;73.63;;
67900;Laerm;54700;51.796;10.956;2023-04-28T10:32:43;64.01;43.61;73.60;;
67900;Laerm;54700;51.796;10.956;2023-04-28T10:36:04;64.89;48.45;76.45;;
67900;Laerm;54700;51.796;10.956;2023-04-28T10:39:09;63.83;39.62;75.37;;
67900;Laerm;54700;51.796;10.956;2023-04-28T10:41:43;64.17;40.55;75.51;;
67900;Laerm;54700;51.796;10.956;2023-04-28T10:44:44;61.76;34.41;71.05;;
67900;Laerm;54700;51.796;10.956;2023-04-28T10:47:30;64.05;42.28;71.35;;
67900;Laerm;54700;51.796;10.956;2023-04-28T10:50:37;63.65;34.17;72.33;;
67900;Laerm;54700;51.796;10.956;2023-04-28T10:57:20;64.19;40.50;72.07;;
67900;Laerm;54700;51.796;10.956;2023-04-28T11:03:08;64.91;46.78;75.14;;
67900;Laerm;54700;51.796;10.956;2023-04-28T11:05:39;62.99;40.48;71.48;;
67900;Laerm;54700;51.796;10.956;2023-04-28T11:08:32;63.16;43.66;72.08;;
67900;Laerm;54700;51.796;10.956;2023-04-28T11:11:16;62.73;40.00;73.67;;
67900;Laerm;54700;51.796;10.956;2023-04-28T11:13:55;64.48;39.50;71.21;;
67900;Laerm;54700;51.796;10.956;2023-04-28T11:16:28;65.35;44.02;77.99;;
67900;Laerm;54700;51.796;10.956;2023-04-28T11:19:03;62.50;41.70;71.46;;
67900;Laerm;54700;51.796;10.956;2023-04-28T11:21:31;63.05;45.72;72.73;;
67900;Laerm;54700;51.796;10.956;2023-04-28T11:24:00;61.92;42.55;70.93;;
67900;Laerm;54700;51.796;10.956;2023-04-28T11:26:39;62.94;39.85;79.68;;
67900;Laerm;54700;51.796;10.956;2023-04-28T11:29:08;62.93;38.55;71.75;;
67900;Laerm;54700;51.796;10.956;2023-04-28T11:31:36;64.54;45.43;73.30;;
67900;Laerm;54700;51.796;10.956;2023-04-28T11:34:10;63.91;54.05;74.81;;
67900;Laerm;54700;51.796;10.956;2023-04-28T11:37:02;64.24;49.56;75.22;;
67900;Laerm;54700;51.796;10.956;2023-04-28T11:39:39;65.17;44.92;83.57;;
67900;Laerm;54700;51.796;10.956;2023-04-28T11:42:19;65.12;41.06;80.88;;
67900;Laerm;54700;51.796;10.956;2023-04-28T11:45:16;62.69;42.66;77.72;;
67900;Laerm;54700;51.796;10.956;2023-04-28T11:48:19;63.73;43.35;77.71;;
67900;Laerm;54700;51.796;10.956;2023-04-28T11:50:49;65.40;45.81;78.02;;
67900;Laerm;54700;51.796;10.956;2023-04-28T11:53:46;63.81;40.78;77.38;;
67900;Laerm;54700;51.796;10.956;2023-04-28T11:56:29;64.72;45.64;72.79;;
67900;Laerm;54700;51.796;10.956;2023-04-28T11:59:22;64.11;43.43;74.67;;
67900;Laerm;54700;51.796;10.956;2023-04-28T12:01:55;64.49;39.68;77.64;;
67900;Laerm;54700;51.796;10.956;2023-04-28T12:04:36;63.25;38.78;71.65;;
67900;Laerm;54700;51.796;10.956;2023-04-28T12:10:24;64.65;36.47;79.10;;
67900;Laerm;54700;51.796;10.956;2023-04-28T12:13:15;62.90;39.90;71.02;;
67900;Laerm;54700;51.796;10.956;2023-04-28T12:15:55;62.87;44.48;70.82;;
67900;Laerm;54700;51.796;10.956;2023-04-28T12:19:07;64.59;36.13;76.70;;
67900;Laerm;54700;51.796;10.956;2023-04-28T12:24:41;62.79;39.16;71.72;;
67900;Laerm;54700;51.796;10.956;2023-04-28T12:27:16;63.87;45.27;74.73;;
67900;Laerm;54700;51.796;10.956;2023-04-28T12:30:22;64.38;43.67;75.39;;
67900;Laerm;54700;51.796;10.956;2023-04-28T12:32:52;62.00;37.21;72.49;;
67900;Laerm;54700;51.796;10.956;2023-04-28T12:35:28;64.33;40.24;73.75;;
67900;Laerm;54700;51.796;10.956;2023-04-28T12:38:16;64.14;49.01;73.24;;
67900;Laerm;54700;51.796;10.956;2023-04-28T12:40:55;60.77;39.07;70.60;;
67900;Laerm;54700;51.796;10.956;2023-04-28T12:43:27;64.08;45.52;72.37;;
67900;Laerm;54700;51.796;10.956;2023-04-28T12:45:56;64.27;44.91;74.92;;
67900;Laerm;54700;51.796;10.956;2023-04-28T12:48:25;64.87;42.03;79.77;;
67900;Laerm;54700;51.796;10.956;2023-04-28T12:50:54;63.57;38.98;72.89;;
67900;Laerm;54700;51.796;10.956;2023-04-28T12:53:30;63.82;41.00;81.00;;
67900;Laerm;54700;51.796;10.956;2023-04-28T12:55:57;62.43;36.13;70.32;;
67900;Laerm;54700;51.796;10.956;2023-04-28T12:58:29;64.84;35.86;75.01;;
67900;Laerm;54700;51.796;10.956;2023-04-28T13:01:08;65.26;39.20;75.04;;
67900;Laerm;54700;51.796;10.956;2023-04-28T13:03:35;65.09;40.73;71.85;;
67900;Laerm;54700;51.796;10.956;2023-04-28T13:06:39;65.45;46.71;77.82;;
67900;Laerm;54700;51.796;10.956;2023-04-28T13:09:36;65.25;38.90;76.13;;
67900;Laerm;54700;51.796;10.956;2023-04-28T13:12:06;63.35;43.55;71.58;;
67900;Laerm;54700;51.796;10.956;2023-04-28T13:14:57;61.62;35.49;74.64;;
67900;Laerm;54700;51.796;10.956;2023-04-28T13:17:30;62.64;39.70;72.55;;
67900;Laerm;54700;51.796;10.956;2023-04-28T13:20:13;63.79;44.04;73.22;;
67900;Laerm;54700;51.796;10.956;2023-04-28T13:22:51;64.53;37.51;73.41;;
67900;Laerm;54700;51.796;10.956;2023-04-28T13:25:34;64.53;40.04;73.84;;
67900;Laerm;54700;51.796;10.956;2023-04-28T13:28:05;63.34;45.62;71.60;;
67900;Laerm;54700;51.796;10.956;2023-04-28T13:30:40;65.57;53.01;79.05;;
67900;Laerm;54700;51.796;10.956;2023-04-28T13:33:22;63.08;41.35;73.48;;
67900;Laerm;54700;51.796;10.956;2023-04-28T13:35:59;62.09;44.37;70.41;;
67900;Laerm;54700;51.796;10.956;2023-04-28T13:38:36;64.95;39.26;77.49;;
67900;Laerm;54700;51.796;10.956;2023-04-28T13:41:17;64.03;47.92;70.84;;
67900;Laerm;54700;51.796;10.956;2023-04-28T13:43:48;67.81;43.69;80.33;;
67900;Laerm;54700;51.796;10.956;2023-04-28T13:46:28;63.78;46.55;73.81;;
67900;Laerm;54700;51.796;10.956;2023-04-28T13:49:12;65.06;46.82;74.66;;
67900;Laerm;54700;51.796;10.956;2023-04-28T13:51:41;63.06;37.10;71.62;;
67900;Laerm;54700;51.796;10.956;2023-04-28T13:54:19;62.58;37.03;73.83;;
67900;Laerm;54700;51.796;10.956;2023-04-28T13:56:53;63.23;33.18;70.99;;
67900;Laerm;54700;51.796;10.956;2023-04-28T13:59:22;65.40;49.98;77.59;;
67900;Laerm;54700;51.796;10.956;2023-04-28T14:01:56;62.46;33.79;71.44;;
67900;Laerm;54700;51.796;10.956;2023-04-28T14:04:32;63.10;42.15;73.83;;
67900;Laerm;54700;51.796;10.956;2023-04-28T14:07:15;63.96;41.61;74.83;;
67900;Laerm;54700;51.796;10.956;2023-04-28T14:09:53;63.58;38.44;72.06;;
67900;Laerm;54700;51.796;10.956;2023-04-28T14:12:29;63.95;34.59;74.82;;
67900;Laerm;54700;51.796;10.956;2023-04-28T14:14:56;62.48;33.92;70.72;;
67900;Laerm;54700;51.796;10.956;2023-04-28T14:17:38;64.45;40.18;71.94;;
67900;Laerm;54700;51.796;10.956;2023-04-28T14:20:12;64.41;47.10;72.83;;
67900;Laerm;54700;51.796;10.956;2023-04-28T14:22:57;63.49;42.93;71.26;;
67900;Laerm;54700;51.796;10.956;2023-04-28T14:25:36;63.96;42.51;72.98;;
67900;Laerm;54700;51.796;10.956;2023-04-28T14:28:12;62.18;38.06;70.87;;
67900;Laerm;54700;51.796;10.956;2023-04-28T14:30:42;62.48;43.17;73.52;;
67900;Laerm;54700;51.796;10.956;2023-04-28T14:33:09;63.59;38.23;74.68;;
67900;Laerm;54700;51.796;10.956;2023-04-28T14:35:39;63.03;40.28;72.70;;
67900;Laerm;54700;51.796;10.956;2023-04-28T14:38:12;62.80;34.93;72.43;;
67900;Laerm;54700;51.796;10.956;2023-04-28T14:40:54;63.26;42.82;76.26;;
67900;Laerm;54700;51.796;10.956;2023-04-28T14:43:32;63.59;41.04;75.18;;
67900;Laerm;54700;51.796;10.956;2023-04-28T14:46:04;64.08;49.50;72.54;;
67900;Laerm;54700;51.796;10.956;2023-04-28T14:48:31;63.26;40.60;70.71;;
67900;Laerm;54700;51.796;10.956;2023-04-28T14:51:05;63.57;39.24;72.58;;
67900;Laerm;54700;51.796;10.956;2023-04-28T14:56:22;62.57;36.23;75.11;;
67900;Laerm;54700;51.796;10.956;2023-04-28T14:59:02;64.54;38.81;74.34;;
67900;Laerm;54700;51.796;10.956;2023-04-28T15:01:37;64.88;44.68;76.35;;
67900;Laerm;54700;51.796;10.956;2023-04-28T15:04:10;63.52;47.44;71.03;;
67900;Laerm;54700;51.796;10.956;2023-04-28T15:06:40;63.01;45.71;71.20;;
67900;Laerm;54700;51.796;10.956;2023-04-28T15:09:12;63.84;40.56;73.76;;
67900;Laerm;54700;51.796;10.956;2023-04-28T15:11:40;63.27;42.26;76.63;;
67900;Laerm;54700;51.796;10.956;2023-04-28T15:14:10;64.10;45.33;71.30;;
67900;Laerm;54700;51.796;10.956;2023-04-28T15:16:40;63.65;47.24;72.08;;
67900;Laerm;54700;51.796;10.956;2023-04-28T15:19:10;63.93;45.82;73.26;;
67900;Laerm;54700;51.796;10.956;2023-04-28T15:21:37;62.22;37.30;71.35;;
67900;Laerm;54700;51.796;10.956;2023-04-28T15:24:05;62.51;44.99;70.85;;
67900;Laerm;54700;51.796;10.956;2023-04-28T15:26:37;60.35;35.56;68.00;;
67900;Laerm;54700;51.796;10.956;2023-04-28T15:29:06;62.54;33.91;73.43;;
67900;Laerm;54700;51.796;10.956;2023-04-28T15:31:42;62.53;41.06;70.89;;
67900;Laerm;54700;51.796;10.956;2023-04-28T15:34:14;62.31;38.06;72.65;;